createdAt,value
2023-01-10T00:00:43.526Z,51.82
2023-01-10T00:03:11.533Z,50.88
2023-01-10T00:05:39.764Z,50.81
2023-01-10T00:08:08.147Z,51.00
2023-01-10T00:10:35.799Z,50.34
2023-01-10T00:13:21.309Z,51.67
2023-01-10T00:15:48.636Z,51.59
2023-01-10T00:18:15.501Z,51.01
2023-01-10T00:20:44.628Z,51.86
2023-01-10T00:23:11.561Z,51.23
2023-01-10T00:25:38.836Z,50.33
2023-01-10T00:28:19.904Z,50.13
2023-01-10T00:31:06.820Z,50.56
2023-01-10T00:33:35.833Z,51.16
2023-01-10T00:36:07.512Z,52.18
2023-01-10T00:38:35.731Z,51.58
2023-01-10T00:41:03.983Z,52.94
2023-01-10T00:43:49.173Z,51.74
2023-01-10T00:46:16.093Z,50.51
2023-01-10T00:48:42.851Z,50.61
2023-01-10T00:51:09.696Z,50.89
2023-01-10T00:53:36.391Z,51.58
2023-01-10T00:56:03.230Z,53.75
2023-01-10T00:58:29.906Z,52.77
2023-01-10T01:00:56.668Z,51.99
2023-01-10T01:03:23.539Z,51.28
2023-01-10T01:05:50.874Z,50.68
2023-01-10T01:08:18.943Z,50.96
2023-01-10T01:10:46.775Z,50.22
2023-01-10T01:13:21.328Z,50.97
2023-01-10T01:15:49.292Z,52.32
2023-01-10T01:18:18.874Z,52.46
2023-01-10T01:20:47.628Z,51.73
2023-01-10T01:23:15.400Z,51.13
2023-01-10T01:25:42.394Z,50.83
2023-01-10T01:28:12.335Z,50.76
2023-01-10T01:30:39.165Z,51.75
2023-01-10T01:33:05.870Z,51.50
2023-01-10T01:35:33.498Z,52.38
2023-01-10T01:38:00.409Z,52.08
2023-01-10T01:40:27.367Z,53.03
2023-01-10T01:42:56.032Z,52.40
2023-01-10T01:45:22.784Z,51.79
2023-01-10T01:47:52.184Z,50.40
2023-01-10T01:50:29.527Z,51.03
2023-01-10T01:52:59.415Z,50.94
2023-01-10T01:55:28.700Z,51.15
2023-01-10T01:57:58.731Z,50.34
2023-01-10T02:00:25.507Z,49.77
2023-01-10T02:03:02.688Z,50.11
2023-01-10T02:05:34.305Z,49.61
2023-01-10T02:08:02.442Z,49.70
2023-01-10T02:10:52.790Z,49.59
2023-01-10T02:13:22.568Z,50.30
2023-01-10T02:15:49.740Z,50.25
2023-01-10T02:18:17.922Z,49.59
2023-01-10T02:20:48.052Z,50.26
2023-01-10T02:23:34.421Z,50.47
2023-01-10T02:26:19.017Z,50.11
2023-01-10T02:28:57.840Z,50.91
2023-01-10T02:32:01.795Z,50.44
2023-01-10T02:34:53.142Z,49.89
2023-01-10T02:37:43.955Z,50.02
2023-01-10T02:40:27.225Z,49.28
2023-01-10T02:43:09.939Z,50.37
2023-01-10T02:45:43.486Z,49.91
2023-01-10T02:48:10.285Z,49.77
2023-01-10T02:50:42.942Z,49.67
2023-01-10T02:53:39.807Z,49.32
2023-01-10T02:56:27.606Z,49.09
2023-01-10T02:59:18.017Z,50.07
2023-01-10T03:01:47.730Z,49.88
2023-01-10T03:04:33.020Z,50.02
2023-01-10T03:07:23.372Z,49.57
2023-01-10T03:09:53.197Z,49.97
2023-01-10T03:12:27.290Z,49.30
2023-01-10T03:14:56.817Z,49.91
2023-01-10T03:17:26.158Z,52.17
2023-01-10T03:19:57.547Z,50.83
2023-01-10T03:22:26.394Z,51.46
2023-01-10T03:24:56.164Z,51.23
2023-01-10T03:27:38.607Z,49.77
2023-01-10T03:30:08.408Z,50.27
2023-01-10T03:32:35.771Z,50.26
2023-01-10T03:35:04.637Z,49.79
2023-01-10T03:37:36.735Z,48.92
2023-01-10T03:40:38.479Z,50.30
2023-01-10T03:43:45.981Z,49.43
2023-01-10T03:46:47.139Z,49.15
2023-01-10T03:49:16.271Z,48.74
2023-01-10T03:51:44.261Z,49.08
2023-01-10T03:54:12.251Z,49.66
2023-01-10T03:56:52.585Z,50.43
2023-01-10T03:59:22.504Z,49.31
2023-01-10T04:01:49.313Z,48.84
2023-01-10T04:04:16.178Z,49.22
2023-01-10T04:06:42.931Z,49.19
2023-01-10T04:09:10.327Z,49.52
2023-01-10T04:11:37.368Z,49.65
2023-01-10T04:14:05.308Z,49.51
2023-01-10T04:16:32.081Z,51.05
2023-01-10T04:18:58.945Z,50.14
2023-01-10T04:21:25.674Z,50.71
2023-01-10T04:23:52.421Z,51.44
2023-01-10T04:26:19.143Z,50.56
2023-01-10T04:28:45.935Z,50.79
2023-01-10T04:31:12.773Z,50.47
2023-01-10T04:33:41.288Z,50.95
2023-01-10T04:36:08.438Z,50.26
2023-01-10T04:38:35.195Z,49.96
2023-01-10T04:41:01.912Z,49.38
2023-01-10T04:43:28.828Z,49.09
2023-01-10T04:45:55.595Z,49.28
2023-01-10T04:48:22.550Z,49.44
2023-01-10T04:50:51.119Z,49.70
2023-01-10T04:53:18.514Z,49.72
2023-01-10T04:55:45.790Z,49.19
2023-01-10T04:58:13.245Z,49.25
2023-01-10T05:00:40.400Z,49.75
2023-01-10T05:03:07.284Z,51.06
2023-01-10T05:05:34.200Z,50.31
2023-01-10T05:08:01.049Z,49.73
2023-01-10T05:10:27.992Z,50.96
2023-01-10T05:12:54.699Z,50.35
2023-01-10T05:15:23.169Z,49.86
2023-01-10T05:17:51.390Z,49.62
2023-01-10T05:20:18.223Z,49.57
2023-01-10T05:22:45.886Z,50.35
2023-01-10T05:25:12.728Z,50.47
2023-01-10T05:27:42.222Z,49.94
2023-01-10T05:30:13.186Z,50.29
2023-01-10T05:32:40.096Z,50.45
2023-01-10T05:35:07.147Z,49.86
2023-01-10T05:37:34.044Z,48.95
2023-01-10T05:40:00.859Z,48.66
2023-01-10T05:42:27.781Z,50.15
2023-01-10T05:44:54.485Z,51.65
2023-01-10T05:47:21.443Z,50.14
2023-01-10T05:49:48.178Z,50.48
2023-01-10T05:52:14.931Z,49.24
2023-01-10T05:54:42.707Z,48.94
2023-01-10T05:57:09.566Z,48.55
2023-01-10T05:59:36.386Z,48.82
2023-01-10T06:02:03.176Z,48.30
2023-01-10T06:04:30.048Z,48.49
2023-01-10T06:06:56.950Z,49.30
2023-01-10T06:09:23.748Z,48.92
2023-01-10T06:11:50.552Z,48.96
2023-01-10T06:14:19.590Z,48.19
2023-01-10T06:16:47.116Z,47.37
2023-01-10T06:19:14.520Z,47.24
2023-01-10T06:21:41.437Z,46.78
2023-01-10T06:24:08.537Z,46.73
2023-01-10T06:26:35.606Z,46.95
2023-01-10T06:29:02.369Z,47.67
2023-01-10T06:31:29.131Z,47.07
2023-01-10T06:33:56.113Z,47.08
2023-01-10T06:36:22.848Z,46.95
2023-01-10T06:38:49.682Z,47.47
2023-01-10T06:41:16.766Z,48.01
2023-01-10T06:43:46.306Z,48.63
2023-01-10T06:46:16.468Z,47.89
2023-01-10T06:48:45.762Z,47.77
2023-01-10T06:51:19.164Z,47.65
2023-01-10T06:53:46.748Z,47.67
2023-01-10T06:56:13.480Z,48.39
2023-01-10T06:58:40.396Z,47.76
2023-01-10T07:01:14.138Z,47.91
2023-01-10T07:03:41.177Z,48.33
2023-01-10T07:06:11.606Z,49.00
2023-01-10T07:08:40.634Z,48.88
2023-01-10T07:11:08.809Z,48.66
2023-01-10T07:13:35.886Z,49.51
2023-01-10T07:16:14.410Z,49.77
2023-01-10T07:18:42.885Z,49.86
2023-01-10T07:21:10.662Z,49.60
2023-01-10T07:23:38.419Z,50.44
2023-01-10T07:26:06.961Z,49.75
2023-01-10T07:28:36.715Z,51.35
2023-01-10T07:31:05.774Z,51.45
2023-01-10T07:33:32.602Z,52.16
2023-01-10T07:36:01.272Z,51.48
2023-01-10T07:38:28.330Z,50.26
2023-01-10T07:40:55.369Z,50.08
2023-01-10T07:43:22.074Z,50.61
2023-01-10T07:45:48.903Z,50.72
2023-01-10T07:48:15.689Z,51.30
2023-01-10T07:50:42.593Z,50.78
2023-01-10T07:53:09.753Z,51.41
2023-01-10T07:55:39.191Z,52.41
2023-01-10T07:58:08.069Z,51.20
2023-01-10T08:00:35.489Z,52.10
2023-01-10T08:03:02.466Z,51.20
2023-01-10T08:05:29.487Z,50.82
2023-01-10T08:07:59.978Z,51.22
2023-01-10T08:10:27.236Z,50.63
2023-01-10T08:12:54.119Z,50.75
2023-01-10T08:15:20.913Z,50.92
2023-01-10T08:17:48.206Z,51.55
2023-01-10T08:20:15.201Z,51.42
2023-01-10T08:22:42.038Z,51.99
2023-01-10T08:25:09.402Z,51.80
2023-01-10T08:27:36.328Z,51.36
2023-01-10T08:30:06.502Z,52.77
2023-01-10T08:32:33.385Z,52.75
2023-01-10T08:35:00.181Z,53.26
2023-01-10T08:37:27.069Z,54.03
2023-01-10T08:39:53.782Z,54.54
2023-01-10T08:42:20.937Z,53.56
2023-01-10T08:44:47.632Z,52.47
2023-01-10T08:47:15.114Z,52.97
2023-01-10T08:50:00.526Z,53.16
2023-01-10T08:52:27.376Z,52.81
2023-01-10T08:54:54.061Z,53.30
2023-01-10T08:57:21.084Z,52.84
2023-01-10T08:59:47.797Z,52.66
2023-01-10T09:02:15.059Z,52.67
2023-01-10T09:04:41.860Z,52.57
2023-01-10T09:07:08.672Z,52.71
2023-01-10T09:09:36.893Z,54.04
2023-01-10T09:12:24.168Z,53.02
2023-01-10T09:14:51.127Z,53.04
2023-01-10T09:17:17.858Z,51.77
2023-01-10T09:19:44.579Z,52.40
2023-01-10T09:22:11.660Z,54.32
2023-01-10T09:24:39.279Z,53.73
2023-01-10T09:27:06.119Z,53.92
2023-01-10T09:29:32.904Z,54.33
2023-01-10T09:31:59.808Z,54.53
2023-01-10T09:34:26.670Z,55.59
2023-01-10T09:36:54.270Z,54.21
2023-01-10T09:39:21.601Z,53.34
2023-01-10T09:41:57.467Z,52.60
2023-01-10T09:44:24.156Z,53.91
2023-01-10T09:46:57.913Z,52.99
2023-01-10T09:49:42.815Z,53.34
2023-01-10T09:52:22.288Z,52.84
2023-01-10T09:54:52.303Z,53.17
2023-01-10T09:57:21.294Z,52.91
2023-01-10T09:59:51.695Z,53.74
2023-01-10T10:02:32.718Z,52.50
2023-01-10T10:05:26.732Z,54.98
2023-01-10T10:07:58.935Z,55.01
2023-01-10T10:10:35.055Z,54.17
2023-01-10T10:13:29.987Z,52.71
2023-01-10T10:16:00.277Z,53.48
2023-01-10T10:18:58.217Z,52.21
2023-01-10T10:21:48.178Z,52.46
2023-01-10T10:24:26.657Z,53.10
2023-01-10T10:27:08.559Z,54.10
2023-01-10T10:29:50.799Z,55.72
2023-01-10T10:32:28.246Z,55.22
2023-01-10T10:35:03.856Z,55.04
2023-01-10T10:37:35.951Z,55.07
2023-01-10T10:40:05.476Z,55.13
2023-01-10T10:42:38.328Z,54.85
2023-01-10T10:45:17.475Z,54.29
2023-01-10T10:47:50.953Z,54.22
2023-01-10T10:50:35.503Z,54.03
2023-01-10T10:53:04.807Z,53.88
2023-01-10T10:55:38.490Z,54.23
2023-01-10T10:58:07.805Z,53.99
2023-01-10T11:00:35.121Z,53.44
2023-01-10T11:03:13.901Z,53.97
2023-01-10T11:05:46.460Z,54.18
2023-01-10T11:08:17.291Z,55.07
2023-01-10T11:10:52.341Z,54.25
2023-01-10T11:13:37.732Z,54.01
2023-01-10T11:16:08.076Z,54.55
2023-01-10T11:18:34.987Z,54.62
2023-01-10T11:21:15.898Z,54.50
2023-01-10T11:24:35.348Z,55.53
2023-01-10T11:27:14.301Z,55.39
2023-01-10T11:29:47.553Z,54.11
2023-01-10T11:32:17.272Z,56.12
2023-01-10T11:34:53.922Z,55.24
2023-01-10T11:37:32.764Z,54.44
2023-01-10T11:40:14.863Z,55.06
2023-01-10T11:42:42.056Z,54.42
2023-01-10T11:45:17.717Z,56.12
2023-01-10T11:47:54.497Z,55.64
2023-01-10T11:50:34.909Z,55.13
2023-01-10T11:53:02.243Z,55.26
2023-01-10T11:55:32.132Z,55.79
2023-01-10T11:58:15.122Z,54.50
2023-01-10T12:00:50.880Z,56.26
2023-01-10T12:03:29.504Z,55.03
2023-01-10T12:06:06.206Z,55.24
2023-01-10T12:08:38.933Z,54.77
2023-01-10T12:11:30.220Z,55.18
2023-01-10T12:14:00.145Z,55.11
2023-01-10T12:16:27.985Z,54.34
2023-01-10T12:18:59.860Z,54.56
2023-01-10T12:21:29.594Z,54.89
2023-01-10T12:24:01.213Z,55.04
2023-01-10T12:26:31.660Z,55.64
2023-01-10T12:29:08.656Z,56.04
2023-01-10T12:31:39.169Z,54.32
2023-01-10T12:34:14.759Z,55.30
2023-01-10T12:37:22.596Z,55.76
2023-01-10T12:40:04.271Z,55.02
2023-01-10T12:43:07.987Z,54.84
2023-01-10T12:45:41.125Z,55.34
2023-01-10T12:48:23.204Z,55.19
2023-01-10T12:51:07.497Z,55.78
2023-01-10T12:53:39.862Z,55.25
2023-01-10T12:56:13.711Z,55.66
2023-01-10T12:58:44.247Z,54.38
2023-01-10T13:01:35.096Z,54.98
2023-01-10T13:04:15.597Z,56.25
2023-01-10T13:06:44.233Z,55.69
2023-01-10T13:09:20.245Z,56.15
2023-01-10T13:12:10.908Z,56.88
2023-01-10T13:14:50.900Z,55.90
2023-01-10T13:17:32.914Z,58.01
2023-01-10T13:20:18.530Z,55.82
2023-01-10T13:22:55.620Z,56.35
2023-01-10T13:25:28.748Z,56.91
2023-01-10T13:27:58.259Z,55.81
2023-01-10T13:30:45.825Z,56.69
2023-01-10T13:33:21.905Z,55.63
2023-01-10T13:35:50.955Z,55.21
2023-01-10T13:38:19.415Z,56.19
2023-01-10T13:41:02.040Z,56.56
2023-01-10T13:44:08.548Z,55.60
2023-01-10T13:46:47.502Z,56.04
2023-01-10T13:49:14.220Z,57.21
2023-01-10T13:52:20.782Z,56.63
2023-01-10T13:55:03.834Z,58.14
2023-01-10T13:57:53.488Z,58.25
2023-01-10T14:01:01.177Z,58.10
2023-01-10T14:03:43.112Z,57.61
2023-01-10T14:06:31.721Z,56.75
2023-01-10T14:09:01.785Z,56.64
2023-01-10T14:11:43.734Z,56.43
2023-01-10T14:14:19.708Z,57.19
2023-01-10T14:16:53.264Z,58.16
2023-01-10T14:19:23.488Z,56.37
2023-01-10T14:21:57.015Z,55.90
2023-01-10T14:24:45.603Z,56.36
2023-01-10T14:27:18.655Z,57.17
2023-01-10T14:29:51.480Z,57.45
2023-01-10T14:32:31.329Z,58.57
2023-01-10T14:35:02.711Z,56.79
2023-01-10T14:37:37.491Z,56.71
2023-01-10T14:40:25.833Z,57.49
2023-01-10T14:42:56.092Z,56.97
2023-01-10T14:45:31.621Z,56.62
2023-01-10T14:47:58.516Z,56.72
2023-01-10T14:50:28.781Z,55.95
2023-01-10T14:52:56.259Z,55.44
2023-01-10T14:55:23.304Z,55.91
2023-01-10T14:57:58.589Z,55.71
2023-01-10T15:00:31.446Z,56.01
2023-01-10T15:03:03.729Z,55.19
2023-01-10T15:05:36.609Z,57.43
2023-01-10T15:08:28.155Z,56.11
2023-01-10T15:11:01.081Z,54.82
2023-01-10T15:13:29.991Z,55.08
2023-01-10T15:15:57.715Z,54.76
2023-01-10T15:18:33.945Z,53.97
2023-01-10T15:21:01.474Z,54.91
2023-01-10T15:23:40.141Z,55.67
2023-01-10T15:26:11.042Z,56.07
2023-01-10T15:28:38.435Z,56.44
2023-01-10T15:31:06.663Z,56.89
2023-01-10T15:33:36.498Z,55.97
2023-01-10T15:36:12.553Z,56.96
2023-01-10T15:38:44.155Z,58.49
2023-01-10T15:41:20.405Z,58.90
2023-01-10T15:43:50.130Z,57.50
2023-01-10T15:46:22.434Z,57.42
2023-01-10T15:49:04.432Z,56.67
2023-01-10T15:51:34.355Z,56.93
2023-01-10T15:54:04.076Z,56.41
2023-01-10T15:56:56.569Z,56.03
2023-01-10T15:59:36.198Z,57.44
2023-01-10T16:02:12.561Z,55.80
2023-01-10T16:04:41.271Z,56.65
2023-01-10T16:07:30.002Z,55.46
2023-01-10T16:10:14.658Z,57.20
2023-01-10T16:13:02.903Z,56.43
2023-01-10T16:15:32.388Z,57.40
2023-01-10T16:17:59.348Z,56.63
2023-01-10T16:20:29.920Z,56.72
2023-01-10T16:22:59.886Z,55.90
2023-01-10T16:25:44.770Z,54.81
2023-01-10T16:28:13.883Z,57.41
2023-01-10T16:30:45.178Z,58.86
2023-01-10T16:33:18.191Z,55.92
2023-01-10T16:35:46.978Z,56.14
2023-01-10T16:38:15.783Z,56.28
2023-01-10T16:40:46.782Z,56.64
2023-01-10T16:43:19.454Z,56.90
2023-01-10T16:45:47.061Z,55.44
2023-01-10T16:48:15.100Z,56.84
2023-01-10T16:50:42.402Z,56.74
2023-01-10T16:53:14.348Z,56.85
2023-01-10T16:55:49.859Z,56.37
2023-01-10T16:58:18.210Z,55.47
2023-01-10T17:00:47.856Z,57.15
2023-01-10T17:03:18.538Z,57.55
2023-01-10T17:05:45.706Z,57.15
2023-01-10T17:08:21.331Z,58.00
2023-01-10T17:10:52.498Z,57.25
2023-01-10T17:13:31.035Z,57.77
2023-01-10T17:15:58.845Z,56.87
2023-01-10T17:18:28.913Z,55.98
2023-01-10T17:20:58.321Z,57.38
2023-01-10T17:23:26.942Z,57.02
2023-01-10T17:26:02.442Z,58.85
2023-01-10T17:28:29.946Z,58.64
2023-01-10T17:30:57.389Z,56.81
2023-01-10T17:33:25.528Z,56.82
2023-01-10T17:35:56.692Z,56.05
2023-01-10T17:38:25.621Z,55.98
2023-01-10T17:40:53.206Z,55.60
2023-01-10T17:43:21.899Z,56.14
2023-01-10T17:45:51.477Z,58.10
2023-01-10T17:48:19.549Z,57.89
2023-01-10T17:50:49.038Z,58.31
2023-01-10T17:53:18.000Z,58.82
2023-01-10T17:55:49.563Z,58.66
2023-01-10T17:58:18.126Z,58.03
2023-01-10T18:00:46.058Z,59.87
2023-01-10T18:03:13.137Z,59.85
2023-01-10T18:05:39.980Z,60.29
2023-01-10T18:08:08.056Z,58.73
2023-01-10T18:10:37.721Z,58.45
2023-01-10T18:13:04.414Z,57.87
2023-01-10T18:15:31.185Z,59.11
2023-01-10T18:17:58.058Z,58.23
2023-01-10T18:20:24.820Z,57.52
2023-01-10T18:23:10.217Z,57.12
2023-01-10T18:25:37.053Z,59.41
2023-01-10T18:28:03.836Z,58.51
2023-01-10T18:30:30.562Z,58.91
2023-01-10T18:32:57.462Z,58.52
2023-01-10T18:35:24.519Z,57.86
2023-01-10T18:37:51.485Z,57.92
2023-01-10T18:40:18.385Z,57.77
2023-01-10T18:42:45.883Z,58.84
2023-01-10T18:45:12.803Z,58.61
2023-01-10T18:47:39.509Z,57.99
2023-01-10T18:50:06.499Z,57.87
2023-01-10T18:52:33.187Z,58.49
2023-01-10T18:55:02.251Z,58.35
2023-01-10T18:57:32.597Z,58.63
2023-01-10T18:59:59.445Z,59.26
2023-01-10T19:02:26.235Z,58.44
2023-01-10T19:04:53.146Z,57.98
2023-01-10T19:07:19.860Z,58.32
2023-01-10T19:09:46.679Z,58.78
2023-01-10T19:12:13.715Z,57.86
2023-01-10T19:14:40.720Z,57.85
2023-01-10T19:17:07.579Z,58.40
2023-01-10T19:19:34.321Z,59.06
2023-01-10T19:22:01.282Z,57.12
2023-01-10T19:24:30.093Z,56.08
2023-01-10T19:26:56.967Z,57.11
2023-01-10T19:29:24.193Z,57.94
2023-01-10T19:31:52.744Z,57.73
2023-01-10T19:34:19.653Z,56.90
2023-01-10T19:36:46.473Z,58.67
2023-01-10T19:39:13.898Z,57.28
2023-01-10T19:41:41.582Z,57.51
2023-01-10T19:44:12.978Z,57.02
2023-01-10T19:46:40.871Z,57.69
2023-01-10T19:49:08.398Z,58.08
2023-01-10T19:51:40.475Z,58.65
2023-01-10T19:54:08.613Z,58.27
2023-01-10T19:56:36.002Z,57.23
2023-01-10T19:59:02.967Z,57.10
2023-01-10T20:01:31.276Z,57.55
2023-01-10T20:04:01.689Z,56.38
2023-01-10T20:06:31.072Z,55.84
2023-01-10T20:08:58.512Z,56.36
2023-01-10T20:11:27.628Z,55.97
2023-01-10T20:13:54.545Z,55.09
2023-01-10T20:16:23.356Z,54.70
2023-01-10T20:18:51.847Z,55.11
2023-01-10T20:21:19.283Z,55.58
2023-01-10T20:23:46.847Z,55.00
2023-01-10T20:26:22.444Z,55.12
2023-01-10T20:28:50.857Z,54.85
2023-01-10T20:31:23.703Z,55.12
2023-01-10T20:33:50.753Z,54.37
2023-01-10T20:36:20.747Z,53.44
2023-01-10T20:38:47.933Z,55.43
2023-01-10T20:41:26.043Z,53.89
2023-01-10T20:43:54.154Z,53.52
2023-01-10T20:46:24.386Z,52.70
2023-01-10T20:48:52.607Z,52.44
2023-01-10T20:51:23.089Z,52.30
2023-01-10T20:53:50.447Z,52.50
2023-01-10T20:56:23.832Z,52.39
2023-01-10T20:58:51.836Z,52.20
2023-01-10T21:01:33.097Z,51.92
2023-01-10T21:04:02.193Z,52.48
2023-01-10T21:06:29.061Z,51.83
2023-01-10T21:08:56.286Z,52.03
2023-01-10T21:11:24.364Z,52.76
2023-01-10T21:13:51.062Z,52.65
2023-01-10T21:16:20.821Z,53.00
2023-01-10T21:18:48.020Z,53.35
2023-01-10T21:21:17.642Z,53.20
2023-01-10T21:23:44.749Z,53.91
2023-01-10T21:26:14.330Z,53.99
2023-01-10T21:28:45.970Z,53.75
2023-01-10T21:31:16.060Z,53.88
2023-01-10T21:33:43.502Z,54.08
2023-01-10T21:36:10.535Z,52.92
2023-01-10T21:38:37.316Z,51.93
2023-01-10T21:41:14.016Z,51.88
2023-01-10T21:43:45.279Z,52.36
2023-01-10T21:46:12.996Z,51.92
2023-01-10T21:48:40.010Z,51.79
2023-01-10T21:51:06.822Z,51.92
2023-01-10T21:53:33.675Z,51.85
2023-01-10T21:56:00.422Z,51.96
2023-01-10T21:58:28.153Z,52.11
2023-01-10T22:00:59.189Z,52.65
2023-01-10T22:03:26.747Z,52.65
2023-01-10T22:05:54.087Z,51.95
2023-01-10T22:08:20.821Z,51.05
2023-01-10T22:10:47.937Z,51.04
2023-01-10T22:13:14.726Z,52.02
2023-01-10T22:15:42.684Z,51.25
2023-01-10T22:18:09.569Z,50.37
2023-01-10T22:20:36.399Z,50.86
2023-01-10T22:23:03.220Z,51.28
2023-01-10T22:25:29.988Z,50.27
2023-01-10T22:27:56.775Z,52.03
2023-01-10T22:30:23.446Z,52.85
2023-01-10T22:35:39.558Z,51.63
2023-01-10T22:38:06.254Z,51.44
2023-01-10T22:40:33.033Z,50.62
2023-01-10T22:42:59.747Z,50.69
2023-01-10T22:45:26.621Z,50.84
2023-01-10T22:47:53.341Z,50.68
2023-01-10T22:50:20.230Z,50.72
2023-01-10T22:52:50.586Z,50.35
2023-01-10T22:55:18.111Z,52.00
2023-01-10T22:57:48.102Z,50.67
2023-01-10T23:00:15.738Z,51.08
2023-01-10T23:02:42.475Z,50.38
2023-01-10T23:05:09.400Z,50.88
2023-01-10T23:07:36.484Z,52.07
2023-01-10T23:10:05.116Z,50.76
2023-01-10T23:12:31.864Z,51.52
2023-01-10T23:14:58.555Z,51.20
2023-01-10T23:17:25.502Z,50.93
2023-01-10T23:19:52.211Z,51.79
2023-01-10T23:22:19.520Z,50.97
2023-01-10T23:24:46.213Z,51.73
2023-01-10T23:27:12.921Z,51.12
2023-01-10T23:29:39.667Z,50.77
2023-01-10T23:32:06.907Z,50.62
2023-01-10T23:34:33.719Z,51.03
2023-01-10T23:37:00.576Z,50.07
2023-01-10T23:39:27.256Z,49.98
2023-01-10T23:41:54.142Z,50.78
2023-01-10T23:44:20.828Z,50.85
2023-01-10T23:46:47.703Z,50.82
2023-01-10T23:49:14.378Z,50.76
2023-01-10T23:51:41.142Z,50.47
2023-01-10T23:54:07.865Z,51.01
2023-01-10T23:56:34.723Z,51.71
2023-01-10T23:59:01.478Z,51.34
